Terminal Aerodrome Forecast
Issued by NWS

Current Version | Previous Version | Text Only | Print | Product List | Glossary Off
Versions: 1 2 3 4 5 6 7 8 9 10 11 12 13 14 15 16 17 18 19 20 21 22

451
FTUS41 KRLX 202343 RRA
TAFCKB
TAF
KCKB 202343Z 2100/2118 23006KT P6SM SCT070
     FM210200 22003KT P6SM SCT150
     FM210700 00000KT P6SM SCT090
     FM211500 25007KT P6SM BKN070=

USA.gov is the U.S. government's official web portal to all federal, state and local government web resources and services.